Terminal Aerodrome Forecast
Issued by NWS

Home | Current Version | Previous Version | Text Only | Print | Product List | Glossary On
Versions: 1 2 3 4 5 6 7 8 9 10 11 12 13 14 15 16 17 18
000
FTUS46 KLOX 071741
TAFWJF
TAF
KWJF 071741Z 0718/0818 26008KT P6SM SKC
     FM071900 24015KT P6SM SKC
     FM072100 24015G25KT P6SM SKC
     FM080000 24020G30KT P6SM SKC
     FM080300 25015KT P6SM SKC=

USA.gov is the U.S. government's official web portal to all federal, state and local government web resources and services.